Huvudsida
METAR-TAF:

METAR-TAF

Flygplatser :

Kärrdals flygplats

Kärrdal, Estland

latitud: 58-59N, longitud: 022-49E, höjd: 5 m

Aktuellt väderrapport

Denna rapport gjordes för 1 timme och 3 minuter sedan, klockan 14:50 UTC
Vind 12 kt från ost/sydost
Temperatur -4°C
Fuktighet 93%
Tryck 1027 hPa
Sikt 10 km eller mer
Mulet på en höjd av 900 ft

METAR: EEKA 161450Z 12012KT 9999 OVC009 M04/M05 Q1027

Tid: 17:53 (15:53 UTC)

Väderprognos

Denna rapport gjordes för 2 timmar och 53 minuter sedan, klockan 13:00 UTC
Prognos gäller från 16 kl. 14 UTC till 16 kl. 20 UTC
Vind 14 kt från ost/sydost
Sikt 10 km eller mer
Mulet på en höjd av 1000 ft
Blir
från 16 kl. 15 UTC till 16 kl. 17 UTC
Sikt: 4000 m
snö
Temporärt
från 16 kl. 17 UTC till 16 kl. 20 UTC
Vind 15 kt från ost/sydost i byarna ända upp till 30 kt
Sikt: 1000 m
på en höjd av 500 ft
tung snö, högt snödrev, fuktdis

TAF: EEKA 161300Z 1614/1620 12014KT 9999 OVC010 BECMG 1615/1617 4000 SN TEMPO 1617/1620 12015G30KT 1000 +SN BLSN BR VV005

Aktuella väderrapporter och prognoser från 4000 flygplatser (METAR- och TAF-rapporter).

De tillgängliga stationerna syns som gula och röda prickar på kartan.

För musen över prickarna för att se namnen på stationerna.

Klicka sedan för att få väderrapporter och prognoser.

För att ändra kartan: Klicka på de gröna knapparna med ett svart kors på för att zooma in; den gröna knappen med ett streck på för att zooma ut; eller på de gröna pilarna för angränsande kartor.


METAR-TAF: